Saint Peters Bay, Canada
Current Conditions -  °F | °C
As of 8:00 PM on Wednesday 22 Oct 2014 (Local Time) from CYYG Reporting Station
Overcast Overcast  
Wind Chill: 42°   Ceiling: 8000
Heat Index: 48°   Visibility: 15mi
Dew Point: 45°   Wind: 17mph
Humidity: 87%   Direction: 50°NE
Pressure: 30.33"   Gusts: NA
Location:  46.42°N, 62.57°W
Report Text: CYYG 222300Z 05015KT 15SM FEW020 OVC080 09/07 A3033 RMK SC1AC7 SLP271
Loading
Personal Weather Stations






























Interactive Weather Map
Tropical Storm Tracking
New forecast layout! Learn more

10-Day Weather Forecast

Advertisements
Track Severe Weather on mobile